CheckWX is a tool to help pilots better visualize weather data.  It is not intended as a substitute for an official pre-flight weather briefing.

10:07:08 UTC

LTBV TAF
Imsık Airport
Turkey
TAF LTBV 260740Z 2609/2618 VRB02KT CAVOK BECMG 2609/2611 28012KT BECMG 2613/2615 VRB02KT

Jun-26@
09:00 UTC

Jun-26 @ 09:00 UTC

Jun-26@
18:00 UTC

Jun-26 @ 18:00 UTC

TAF LTBV 260740Z 2609/2618 VRB02KT CAVOK
Wind
  • Variable at 2 KTS
Conditions
No significant weather
Cloud Levels
  • No significant clouds

Jun-26@
09:00 UTC

Jun-26 @ 09:00 UTC

Jun-26@
13:00 UTC

Jun-26 @ 13:00 UTC

BECMG 2609/2611 28012KT

Becoming

Becoming Conditions expected by Wed, Jun 26, 2019 @ 11:00 UTC

Wind
  • 280° at 12 KTS
Conditions
No significant weather
Cloud Levels
  • No significant clouds

Jun-26@
13:00 UTC

Jun-26 @ 13:00 UTC

Jun-26@
18:00 UTC

Jun-26 @ 18:00 UTC

BECMG 2613/2615 VRB02KT

Becoming

Becoming Conditions expected by Wed, Jun 26, 2019 @ 15:00 UTC

Wind
  • Variable at 2 KTS
Conditions
No significant weather
Cloud Levels
  • No significant clouds